Time;durP1;ratioP1;P1;durP2;ratioP2;P2;SDS_P1;SDS_P2;PMS_P1;PMS_P2;Temp;Humidity;BMP_temperature;BMP_pressure;BME280_temperature;BME280_humidity;BME280_pressure;Samples;Min_cycle;Max_cycle;Signal;HPM_P1;HPM_P2
2023/08/24 00:01:21;;;;;;;5.28;4.65;;;13.70;99.90;;;;;;4941707;28;20201;-75
2023/08/24 00:03:48;;;;;;;5.30;4.47;;;13.70;99.90;;;;;;4941741;28;20519;-81
2023/08/24 00:06:14;;;;;;;5.05;3.83;;;13.70;99.90;;;;;;4925335;28;20083;-78
2023/08/24 00:08:40;;;;;;;4.68;3.72;;;13.70;99.90;;;;;;4941484;28;20576;-84
2023/08/24 00:11:07;;;;;;;4.65;4.18;;;13.60;99.90;;;;;;4940881;28;20062;-83
2023/08/24 00:13:33;;;;;;;6.88;5.10;;;13.60;99.90;;;;;;4931086;28;20455;-81
2023/08/24 00:15:59;;;;;;;6.15;4.95;;;13.50;99.90;;;;;;4921580;28;20054;-79
2023/08/24 00:18:25;;;;;;;6.00;5.25;;;13.50;99.90;;;;;;4940110;28;20097;-82
2023/08/24 00:20:51;;;;;;;8.00;4.55;;;13.50;99.90;;;;;;4940045;28;20086;-80
2023/08/24 00:23:17;;;;;;;5.63;5.10;;;13.50;99.90;;;;;;4963875;28;20252;-76
2023/08/24 00:25:42;;;;;;;6.43;5.55;;;13.50;99.90;;;;;;4944119;28;20053;-80
2023/08/24 00:28:08;;;;;;;7.05;5.90;;;13.50;99.90;;;;;;4947145;28;20050;-77
2023/08/24 00:30:34;;;;;;;5.85;4.35;;;13.40;99.90;;;;;;4941092;28;20065;-76
2023/08/24 00:33:00;;;;;;;6.03;4.93;;;13.40;99.90;;;;;;4941151;28;20053;-78
2023/08/24 00:35:26;;;;;;;5.40;4.90;;;13.40;99.90;;;;;;4941119;28;20472;-79
2023/08/24 00:37:52;;;;;;;5.57;4.90;;;13.40;99.90;;;;;;4940835;28;20117;-80
2023/08/24 00:40:18;;;;;;;6.00;5.18;;;13.30;99.90;;;;;;4926814;28;20094;-75
2023/08/24 00:42:45;;;;;;;14.68;4.38;;;13.30;99.90;;;;;;4929934;28;20051;-79
2023/08/24 00:45:13;;;;;;;3.58;3.08;;;13.30;99.90;;;;;;4936765;28;20059;-78
2023/08/24 00:47:42;;;;;;;48.15;3.10;;;13.30;99.90;;;;;;4937020;28;20053;-76
2023/08/24 00:50:09;;;;;;;16.40;1.80;;;13.30;99.90;;;;;;4939451;28;20054;-77
2023/08/24 00:52:39;;;;;;;21.73;2.40;;;13.20;99.90;;;;;;4939012;28;20090;-77
2023/08/24 00:55:06;;;;;;;128.07;4.28;;;13.20;99.90;;;;;;4938458;28;20039;-77
2023/08/24 00:57:32;;;;;;;139.50;4.30;;;13.20;99.90;;;;;;4938758;28;20050;-75
2023/08/24 01:00:01;;;;;;;35.67;3.95;;;13.20;99.90;;;;;;4938736;28;20767;-75
2023/08/24 01:02:27;;;;;;;124.88;2.78;;;13.20;99.90;;;;;;4941636;28;20133;-77
2023/08/24 01:04:54;;;;;;;86.18;2.22;;;13.10;99.90;;;;;;4928164;28;20124;-75
2023/08/24 01:07:20;;;;;;;45.97;1.70;;;13.10;99.90;;;;;;4940028;28;20373;-75
2023/08/24 01:09:48;;;;;;;114.63;7.13;;;13.00;99.90;;;;;;4938201;28;20077;-77
2023/08/24 01:12:32;;;;;;;90.60;9.25;;;13.00;99.90;;;;;;4923046;28;20725;-76
2023/08/24 01:15:12;;;;;;;82.97;10.75;;;12.90;99.90;;;;;;4938956;28;20082;-77
2023/08/24 01:17:42;;;;;;;69.47;12.48;;;12.90;99.90;;;;;;4956859;28;20379;-76
2023/08/24 01:20:09;;;;;;;83.20;12.30;;;12.90;99.90;;;;;;4944409;28;20057;-78
2023/08/24 01:22:57;;;;;;;16.88;10.70;;;12.90;99.90;;;;;;4939655;28;20385;-77
2023/08/24 01:25:46;;;;;;;12.18;8.80;;;12.90;99.90;;;;;;4925719;28;20061;-78
2023/08/24 01:28:13;;;;;;;12.30;8.85;;;13.00;99.90;;;;;;4939665;28;20633;-76
2023/08/24 01:30:39;;;;;;;8.25;7.18;;;13.00;99.90;;;;;;4944570;28;20058;-78
2023/08/24 01:33:05;;;;;;;9.50;7.72;;;13.00;99.90;;;;;;4943607;28;20042;-78
2023/08/24 01:35:32;;;;;;;9.52;7.95;;;13.00;99.90;;;;;;4923659;28;20085;-77
2023/08/24 01:38:02;;;;;;;10.48;8.65;;;13.10;99.90;;;;;;4938340;28;20131;-76
2023/08/24 01:40:48;;;;;;;12.88;11.00;;;13.10;99.90;;;;;;4924642;28;20054;-79
2023/08/24 01:43:15;;;;;;;16.25;11.18;;;13.20;99.90;;;;;;4923744;28;20045;-78
2023/08/24 01:45:43;;;;;;;13.55;11.05;;;13.20;99.90;;;;;;4939820;28;20085;-77
2023/08/24 01:48:10;;;;;;;13.82;12.23;;;13.20;99.90;;;;;;4944990;28;20054;-77
2023/08/24 01:50:36;;;;;;;12.77;10.02;;;13.20;99.90;;;;;;4940298;28;20050;-77
2023/08/24 01:53:03;;;;;;;12.10;9.30;;;13.20;99.90;;;;;;4939752;28;20061;-78
2023/08/24 01:55:29;;;;;;;11.88;7.53;;;10.70;99.90;;;;;;4960348;28;20118;-76
2023/08/24 01:57:56;;;;;;;28.52;5.97;;;13.20;99.90;;;;;;4944020;28;20051;-78
2023/08/24 02:00:22;;;;;;;9.90;7.55;;;13.30;99.90;;;;;;4946508;28;20734;-78
2023/08/24 02:02:48;;;;;;;8.40;7.05;;;13.30;99.90;;;;;;4939941;28;20117;-78
2023/08/24 02:05:14;;;;;;;8.15;5.95;;;13.40;99.90;;;;;;4937536;28;20134;-76
2023/08/24 02:07:43;;;;;;;7.28;6.47;;;13.40;99.90;;;;;;4923378;28;20046;-78
2023/08/24 02:10:08;;;;;;;9.77;6.82;;;13.40;99.90;;;;;;4941405;28;20494;-77
2023/08/24 02:12:34;;;;;;;14.77;11.18;;;13.50;99.90;;;;;;4957466;28;20058;-78
2023/08/24 02:15:00;;;;;;;15.70;13.05;;;13.50;99.90;;;;;;4938677;28;20508;-78
2023/08/24 02:17:29;;;;;;;19.42;13.82;;;13.50;99.90;;;;;;4941592;28;20054;-78
2023/08/24 02:19:55;;;;;;;13.05;11.57;;;13.60;99.90;;;;;;4938254;28;20050;-76
2023/08/24 02:22:21;;;;;;;20.75;11.82;;;13.60;99.90;;;;;;4927862;28;20055;-78
2023/08/24 02:24:46;;;;;;;11.30;9.88;;;13.70;99.90;;;;;;4927079;28;20047;-77
2023/08/24 02:27:12;;;;;;;13.10;10.98;;;13.60;99.90;;;;;;4945918;28;20906;-78
2023/08/24 02:29:39;;;;;;;13.55;10.73;;;10.80;99.90;;;;;;4943534;28;20054;-78
2023/08/24 02:32:05;;;;;;;14.05;10.68;;;13.60;99.90;;;;;;4944697;28;20054;-77
2023/08/24 02:34:31;;;;;;;10.57;8.80;;;13.60;99.90;;;;;;4962092;28;20055;-77
2023/08/24 02:36:57;;;;;;;8.30;6.10;;;13.70;99.90;;;;;;4931134;28;20894;-79
2023/08/24 02:39:23;;;;;;;6.50;5.13;;;13.60;99.90;;;;;;4928329;28;20062;-78
2023/08/24 02:41:49;;;;;;;7.30;5.93;;;13.60;99.90;;;;;;4939789;28;20475;-78
2023/08/24 02:44:15;;;;;;;7.22;5.90;;;13.60;99.90;;;;;;4919044;28;20042;-79
2023/08/24 02:46:44;;;;;;;7.38;6.03;;;13.50;99.90;;;;;;4941021;28;20053;-78
2023/08/24 02:49:09;;;;;;;6.75;5.35;;;13.50;99.90;;;;;;4955193;28;20050;-76
2023/08/24 02:51:35;;;;;;;8.50;5.80;;;13.50;99.90;;;;;;4925066;28;20053;-78
2023/08/24 02:54:01;;;;;;;7.55;5.80;;;13.50;99.90;;;;;;4941395;28;20090;-79
2023/08/24 02:56:27;;;;;;;9.65;5.93;;;13.50;99.90;;;;;;4945079;28;20108;-79
2023/08/24 02:58:52;;;;;;;8.27;6.20;;;13.50;99.90;;;;;;4944185;28;20050;-79
2023/08/24 03:01:18;;;;;;;8.10;6.10;;;13.40;99.90;;;;;;4942921;28;20142;-77
2023/08/24 03:03:44;;;;;;;7.15;6.20;;;13.50;99.90;;;;;;4945227;28;20500;-78
2023/08/24 03:06:10;;;;;;;8.75;6.60;;;13.50;99.90;;;;;;4932368;28;20071;-80
2023/08/24 03:08:36;;;;;;;9.20;6.93;;;13.40;99.90;;;;;;4943272;28;20429;-79
2023/08/24 03:11:02;;;;;;;11.07;7.75;;;13.40;99.90;;;;;;4948009;28;20063;-79
2023/08/24 03:13:29;;;;;;;10.07;6.50;;;13.40;99.90;;;;;;4940517;28;20055;-77
2023/08/24 03:15:55;;;;;;;11.90;7.75;;;13.40;99.90;;;;;;4926153;28;20051;-79
2023/08/24 03:18:21;;;;;;;11.13;8.65;;;13.50;99.90;;;;;;4955161;28;20566;-79
2023/08/24 03:20:48;;;;;;;14.32;8.85;;;13.50;99.90;;;;;;4947802;28;20057;-79
2023/08/24 03:23:15;;;;;;;10.93;7.80;;;13.50;99.90;;;;;;4943465;28;20480;-78
2023/08/24 03:25:42;;;;;;;8.70;7.28;;;13.50;99.90;;;;;;4950785;28;20097;-79
2023/08/24 03:28:10;;;;;;;10.65;6.93;;;11.10;99.90;;;;;;4941838;28;20106;-77
2023/08/24 03:30:38;;;;;;;9.88;6.47;;;13.50;99.90;;;;;;4963892;28;20077;-79
2023/08/24 03:33:05;;;;;;;12.32;7.35;;;13.50;99.90;;;;;;4942605;28;20054;-79
2023/08/24 03:35:31;;;;;;;13.10;7.72;;;13.50;99.90;;;;;;4944328;28;20062;-78
2023/08/24 03:37:57;;;;;;;8.95;6.18;;;13.50;99.90;;;;;;4943409;28;20050;-78
2023/08/24 03:40:23;;;;;;;13.98;7.00;;;13.40;99.90;;;;;;4938079;28;20409;-79
2023/08/24 03:42:49;;;;;;;9.68;7.00;;;13.40;99.90;;;;;;4956523;28;20042;-77
2023/08/24 03:45:15;;;;;;;6.95;6.25;;;13.30;99.90;;;;;;4948057;28;20053;-77
2023/08/24 03:47:41;;;;;;;10.13;6.93;;;13.30;99.90;;;;;;4926471;28;20071;-79
2023/08/24 03:50:07;;;;;;;10.30;6.25;;;13.20;99.90;;;;;;4961796;28;20627;-80
2023/08/24 03:52:33;;;;;;;8.18;6.03;;;15.30;99.90;;;;;;4932219;28;20062;-78
2023/08/24 03:54:59;;;;;;;7.68;6.35;;;13.20;99.90;;;;;;4941358;28;20055;-78
2023/08/24 03:57:25;;;;;;;7.10;5.75;;;13.20;99.90;;;;;;4956922;28;20055;-79
2023/08/24 03:59:51;;;;;;;7.80;6.18;;;13.20;99.90;;;;;;4957456;28;20057;-79
2023/08/24 04:02:16;;;;;;;8.13;7.03;;;13.10;99.90;;;;;;4957313;28;20051;-78
2023/08/24 04:04:43;;;;;;;7.97;6.60;;;13.10;99.90;;;;;;4920795;28;20055;-79
2023/08/24 04:07:09;;;;;;;8.85;7.43;;;13.00;99.90;;;;;;4940417;28;20142;-80
2023/08/24 04:09:34;;;;;;;11.57;6.82;;;13.00;99.90;;;;;;4924586;28;20054;-79
2023/08/24 04:12:00;;;;;;;10.57;6.93;;;12.90;99.90;;;;;;4940068;28;20058;-79
2023/08/24 04:14:26;;;;;;;11.90;8.20;;;12.10;99.90;;;;;;4939207;28;20058;-79
2023/08/24 04:16:52;;;;;;;12.73;8.23;;;10.80;99.90;;;;;;4940609;28;20098;-79
2023/08/24 04:19:18;;;;;;;9.63;6.63;;;12.90;99.90;;;;;;4935812;29;20489;-79
2023/08/24 04:21:43;;;;;;;23.77;9.85;;;12.80;99.90;;;;;;4947236;28;20153;-80
2023/08/24 04:24:09;;;;;;;31.75;10.85;;;12.80;99.90;;;;;;4942351;28;20141;-79
2023/08/24 04:26:35;;;;;;;12.07;9.15;;;12.80;99.90;;;;;;4946501;28;20047;-80
2023/08/24 04:29:01;;;;;;;24.95;11.00;;;12.80;99.90;;;;;;4924990;28;20057;-82
2023/08/24 04:31:26;;;;;;;15.55;9.98;;;12.80;99.90;;;;;;4948425;28;20119;-80
2023/08/24 04:33:52;;;;;;;121.60;11.15;;;12.70;99.90;;;;;;4941732;28;20133;-81
2023/08/24 04:36:18;;;;;;;232.63;11.18;;;12.70;99.90;;;;;;4942054;28;20066;-80
2023/08/24 04:38:44;;;;;;;294.45;12.80;;;12.70;99.90;;;;;;4943557;28;20058;-80
2023/08/24 04:41:11;;;;;;;261.23;12.50;;;12.70;99.90;;;;;;4946272;28;20707;-80
2023/08/24 04:43:36;;;;;;;131.98;7.40;;;12.70;99.90;;;;;;4942057;28;20055;-80
2023/08/24 04:46:02;;;;;;;180.65;9.70;;;12.70;99.90;;;;;;4945938;28;20053;-80
2023/08/24 04:48:34;;;;;;;159.68;6.65;;;12.70;99.90;;;;;;4943474;28;20058;-81
2023/08/24 04:51:03;;;;;;;212.20;7.70;;;12.70;99.90;;;;;;4946362;28;20058;-78
2023/08/24 04:53:29;;;;;;;121.53;5.82;;;12.70;99.90;;;;;;4926119;28;20137;-81
2023/08/24 04:55:55;;;;;;;163.80;7.70;;;12.70;99.90;;;;;;4941066;28;20053;-80
2023/08/24 04:58:21;;;;;;;182.18;9.63;;;12.70;99.90;;;;;;4941423;28;20125;-80
2023/08/24 05:00:48;;;;;;;250.85;11.65;;;12.70;99.90;;;;;;4944183;28;20484;-78
2023/08/24 05:03:14;;;;;;;265.52;13.52;;;12.70;99.90;;;;;;4924047;28;20054;-77
2023/08/24 05:05:40;;;;;;;354.17;16.45;;;12.80;99.90;;;;;;4955479;28;20584;-75
2023/08/24 05:08:09;;;;;;;24.17;11.65;;;12.80;99.90;;;;;;4926360;28;20500;-78
2023/08/24 05:10:54;;;;;;;21.35;13.60;;;12.80;99.90;;;;;;4889717;29;20966;-73
2023/08/24 05:13:20;;;;;;;27.73;15.05;;;13.00;99.90;;;;;;4888342;29;20074;-76
2023/08/24 05:15:46;;;;;;;29.63;16.55;;;13.10;99.90;;;;;;4867333;29;20265;-77
2023/08/24 05:18:11;;;;;;;23.85;16.33;;;13.20;99.90;;;;;;4886498;29;20108;-77
2023/08/24 05:20:37;;;;;;;27.58;16.33;;;13.40;99.90;;;;;;4869270;29;20265;-77
2023/08/24 05:23:03;;;;;;;27.30;16.23;;;13.50;99.90;;;;;;4881154;29;20051;-77
2023/08/24 05:25:29;;;;;;;24.00;15.88;;;13.60;99.90;;;;;;4864111;29;20088;-78
2023/08/24 05:27:55;;;;;;;23.55;14.80;;;13.70;99.90;;;;;;4878122;29;20850;-77
2023/08/24 05:30:21;;;;;;;23.80;15.18;;;13.90;99.90;;;;;;4880447;29;20106;-78
2023/08/24 05:32:46;;;;;;;21.85;15.20;;;14.10;99.90;;;;;;4880009;29;20108;-78
2023/08/24 05:35:12;;;;;;;17.83;13.68;;;14.50;99.90;;;;;;4879558;29;20052;-78
2023/08/24 05:37:38;;;;;;;17.45;12.52;;;15.20;99.90;;;;;;4877370;29;20064;-79
2023/08/24 05:40:05;;;;;;;15.57;11.25;;;16.20;99.90;;;;;;4883746;29;20048;-78
2023/08/24 05:42:31;;;;;;;15.35;11.27;;;16.50;99.90;;;;;;4915536;28;20050;-77
2023/08/24 05:44:56;;;;;;;13.25;9.90;;;16.20;99.90;;;;;;4945819;28;20058;-78
2023/08/24 05:47:22;;;;;;;15.25;9.07;;;16.30;99.90;;;;;;4943839;28;20389;-77
2023/08/24 05:49:48;;;;;;;14.15;8.60;;;16.70;99.90;;;;;;4944286;28;20134;-78
2023/08/24 05:52:14;;;;;;;13.88;9.32;;;16.80;99.90;;;;;;4927796;28;20043;-78
2023/08/24 05:54:42;;;;;;;10.73;7.75;;;16.80;99.90;;;;;;4927748;28;20507;-77
2023/08/24 05:57:08;;;;;;;12.80;7.93;;;17.40;99.90;;;;;;4940727;28;20047;-77
2023/08/24 05:59:34;;;;;;;10.65;7.10;;;17.70;99.90;;;;;;4937709;28;20255;-77
2023/08/24 06:02:00;;;;;;;9.68;6.90;;;18.70;99.90;;;;;;4939379;28;20054;-77
2023/08/24 06:04:26;;;;;;;13.02;6.53;;;20.00;99.90;;;;;;4945519;28;20057;-78
2023/08/24 06:06:52;;;;;;;8.75;6.15;;;21.10;99.90;;;;;;4929329;28;20061;-77
2023/08/24 06:09:18;;;;;;;8.10;6.03;;;22.00;99.90;;;;;;4945902;28;20053;-79
2023/08/24 06:11:43;;;;;;;9.65;5.63;;;22.90;99.90;;;;;;4943149;28;20050;-77
2023/08/24 06:14:09;;;;;;;9.77;4.90;;;23.70;99.90;;;;;;4945014;28;20089;-76
2023/08/24 06:16:35;;;;;;;7.30;5.57;;;24.40;99.90;;;;;;4931955;28;20126;-76
2023/08/24 06:19:01;;;;;;;7.05;3.88;;;25.00;99.60;;;;;;4943254;28;20057;-76
2023/08/24 06:21:26;;;;;;;8.93;4.15;;;25.40;97.80;;;;;;4945879;28;20054;-76
2023/08/24 06:23:52;;;;;;;6.70;3.90;;;25.90;96.40;;;;;;4947268;28;20138;-77
2023/08/24 06:26:18;;;;;;;9.68;3.97;;;26.20;95.00;;;;;;4942607;28;20102;-74
2023/08/24 06:28:44;;;;;;;7.53;3.38;;;26.60;94.90;;;;;;4925020;28;20109;-78
2023/08/24 06:31:10;;;;;;;7.55;3.15;;;26.20;94.60;;;;;;4942800;28;20051;-75
2023/08/24 06:33:36;;;;;;;8.50;4.07;;;26.20;94.20;;;;;;4950151;28;20268;-75
2023/08/24 06:36:06;;;;;;;10.80;3.58;;;26.70;93.20;;;;;;4940314;28;20094;-75
2023/08/24 06:38:32;;;;;;;7.78;3.00;;;27.20;92.30;;;;;;4928567;28;20081;-76
2023/08/24 06:40:58;;;;;;;6.80;2.83;;;27.60;91.50;;;;;;4924291;28;20158;-74
2023/08/24 06:43:25;;;;;;;4.95;2.78;;;27.90;90.90;;;;;;4948097;28;20070;-74
2023/08/24 06:45:50;;;;;;;4.50;2.97;;;28.30;90.40;;;;;;4944292;28;20061;-74
2023/08/24 06:48:17;;;;;;;5.55;3.03;;;28.80;89.10;;;;;;4926322;28;20055;-75
2023/08/24 06:50:43;;;;;;;5.03;2.65;;;29.20;87.60;;;;;;4942864;28;20054;-75
2023/08/24 06:53:09;;;;;;;6.10;2.92;;;29.60;86.60;;;;;;4941726;28;20082;-73
2023/08/24 06:55:36;;;;;;;10.32;3.33;;;30.00;84.30;;;;;;4942260;28;20051;-74
2023/08/24 06:58:05;;;;;;;6.38;3.35;;;30.40;83.50;;;;;;4925857;28;20142;-73
2023/08/24 07:00:31;;;;;;;7.10;3.92;;;30.30;80.30;;;;;;4945715;28;20129;-74
2023/08/24 07:02:57;;;;;;;7.43;3.70;;;30.70;79.50;;;;;;4940207;28;20058;-75
2023/08/24 07:05:23;;;;;;;8.32;3.85;;;30.80;78.70;;;;;;4941763;28;20066;-75
2023/08/24 07:07:53;;;;;;;9.27;4.45;;;31.10;77.80;;;;;;4940774;28;20054;-75
2023/08/24 07:10:19;;;;;;;8.15;5.00;;;29.90;78.20;;;;;;4940795;28;20055;-74
2023/08/24 07:12:45;;;;;;;7.20;4.40;;;28.90;79.70;;;;;;4925187;28;20047;-74
2023/08/24 07:15:14;;;;;;;9.07;4.15;;;27.80;80.80;;;;;;4941389;28;20556;-73
2023/08/24 07:17:40;;;;;;;7.78;5.22;;;27.00;82.30;;;;;;4926110;28;20270;-74
2023/08/24 07:20:08;;;;;;;7.25;4.57;;;26.10;84.30;;;;;;4939691;28;20708;-76
2023/08/24 07:22:34;;;;;;;11.70;5.90;;;25.30;85.80;;;;;;4929336;28;20055;-73
2023/08/24 07:25:04;;;;;;;10.93;5.70;;;24.80;87.50;;;;;;4944493;28;20077;-74
2023/08/24 07:27:33;;;;;;;10.88;5.70;;;24.20;89.10;;;;;;4939950;28;20050;-74
2023/08/24 07:30:00;;;;;;;7.97;5.47;;;23.80;90.40;;;;;;4940012;28;20082;-74
2023/08/24 07:32:29;;;;;;;10.00;5.80;;;23.50;91.10;;;;;;4958439;28;20578;-75
2023/08/24 07:34:57;;;;;;;8.73;5.78;;;25.80;92.60;;;;;;4948295;28;20073;-77
2023/08/24 07:37:22;;;;;;;10.68;5.93;;;23.20;92.70;;;;;;4942207;28;20058;-75
2023/08/24 07:39:48;;;;;;;9.70;6.03;;;23.00;92.70;;;;;;4927248;28;20054;-73
2023/08/24 07:42:14;;;;;;;9.93;5.43;;;23.00;93.10;;;;;;4942054;28;20054;-74
2023/08/24 07:44:40;;;;;;;8.93;5.10;;;23.00;93.50;;;;;;4926763;28;20504;-75
2023/08/24 07:47:06;;;;;;;10.02;6.03;;;23.00;93.90;;;;;;4940811;28;20058;-78
2023/08/24 07:49:32;;;;;;;11.60;5.85;;;23.00;93.90;;;;;;4947411;28;20130;-76
2023/08/24 07:51:58;;;;;;;8.57;5.60;;;23.00;94.00;;;;;;4942246;28;20065;-73
2023/08/24 07:54:24;;;;;;;11.68;6.18;;;23.00;93.90;;;;;;4929302;28;20088;-74
2023/08/24 07:56:50;;;;;;;14.45;6.50;;;23.00;94.20;;;;;;4936391;28;20058;-73
2023/08/24 07:59:16;;;;;;;8.63;5.18;;;23.00;94.10;;;;;;4925366;28;20077;-73
2023/08/24 08:01:42;;;;;;;11.52;6.97;;;23.00;94.40;;;;;;4941267;28;20050;-72
2023/08/24 08:04:08;;;;;;;9.88;5.57;;;23.20;94.40;;;;;;4944384;28;20050;-73
2023/08/24 08:06:33;;;;;;;8.15;5.88;;;23.50;94.20;;;;;;4943228;28;20081;-74
2023/08/24 08:09:00;;;;;;;11.45;5.82;;;23.60;94.10;;;;;;4962352;28;20039;-74
2023/08/24 08:11:26;;;;;;;10.18;6.38;;;23.70;94.00;;;;;;4940545;28;20172;-77
2023/08/24 08:13:52;;;;;;;9.90;5.75;;;24.10;93.90;;;;;;4960650;28;20145;-77
2023/08/24 08:16:17;;;;;;;10.50;5.93;;;25.10;93.60;;;;;;4943907;28;20051;-75
2023/08/24 08:18:43;;;;;;;11.38;6.40;;;25.90;92.80;;;;;;4945268;28;20104;-75
2023/08/24 08:21:17;;;;;;;9.85;5.30;;;25.90;92.10;;;;;;4938845;28;20054;-78
2023/08/24 08:23:45;;;;;;;9.65;5.65;;;25.80;91.50;;;;;;4928305;28;20046;-75
2023/08/24 08:26:11;;;;;;;10.52;5.35;;;26.10;91.20;;;;;;4942791;28;20050;-74
2023/08/24 08:28:37;;;;;;;10.13;4.97;;;27.00;90.80;;;;;;4945628;28;20043;-74
2023/08/24 08:31:03;;;;;;;6.07;4.28;;;28.00;90.00;;;;;;4927362;28;20057;-75
2023/08/24 08:33:29;;;;;;;7.60;3.92;;;28.90;88.80;;;;;;4961332;28;20683;-74
2023/08/24 08:35:56;;;;;;;8.75;4.05;;;29.70;86.90;;;;;;4927546;28;20317;-72
2023/08/24 08:38:25;;;;;;;6.80;3.35;;;30.20;84.20;;;;;;4939570;28;20641;-75
2023/08/24 08:40:54;;;;;;;8.02;3.10;;;30.70;83.10;;;;;;4941684;28;20463;-79
2023/08/24 08:43:22;;;;;;;7.40;3.22;;;31.20;79.50;;;;;;4934412;28;20093;-78
2023/08/24 08:45:50;;;;;;;7.38;3.15;;;31.70;77.40;;;;;;4929295;28;20050;-74
2023/08/24 08:48:15;;;;;;;10.98;2.97;;;31.90;75.90;;;;;;4940346;28;20412;-75
2023/08/24 08:50:41;;;;;;;5.78;2.55;;;31.80;74.50;;;;;;4928119;28;20055;-74
2023/08/24 08:53:07;;;;;;;5.80;2.42;;;31.50;74.50;;;;;;4940352;28;20050;-79
2023/08/24 08:55:34;;;;;;;10.00;2.58;;;32.10;75.30;;;;;;4940166;28;20057;-74
2023/08/24 08:58:03;;;;;;;6.85;3.42;;;31.10;74.60;;;;;;4955525;28;20062;-73
2023/08/24 09:00:29;;;;;;;6.85;2.53;;;30.60;73.40;;;;;;4940247;28;20051;-77
2023/08/24 09:02:57;;;;;;;3.92;2.58;;;31.50;74.00;;;;;;4955891;28;20050;-76
2023/08/24 09:05:26;;;;;;;5.57;2.67;;;31.30;73.30;;;;;;4947544;28;20158;-72
2023/08/24 09:07:54;;;;;;;7.28;3.38;;;31.10;73.60;;;;;;4936135;28;20074;-74
2023/08/24 09:10:20;;;;;;;7.75;3.25;;;30.90;73.70;;;;;;4923195;28;20126;-74
2023/08/24 09:12:46;;;;;;;6.05;2.97;;;31.00;73.80;;;;;;4921185;28;20043;-76
2023/08/24 09:15:13;;;;;;;8.70;3.20;;;31.00;73.10;;;;;;4938892;28;20050;-75
2023/08/24 09:17:43;;;;;;;4.72;3.15;;;30.80;73.40;;;;;;4941039;28;20324;-77
2023/08/24 09:20:09;;;;;;;6.50;2.45;;;30.90;73.40;;;;;;4938886;28;20090;-76
2023/08/24 09:22:37;;;;;;;8.25;3.80;;;30.90;74.10;;;;;;4958658;28;20129;-73
2023/08/24 09:25:06;;;;;;;6.45;3.17;;;31.00;73.10;;;;;;4941548;28;20523;-74
2023/08/24 09:27:32;;;;;;;7.03;3.15;;;30.90;73.30;;;;;;4961359;28;20441;-74
2023/08/24 09:29:58;;;;;;;8.20;2.92;;;30.70;73.90;;;;;;4938093;28;20149;-76
2023/08/24 09:32:27;;;;;;;9.05;3.45;;;30.50;74.20;;;;;;4962541;28;20197;-73
2023/08/24 09:34:53;;;;;;;7.20;3.53;;;30.50;74.00;;;;;;4944617;28;20051;-73
2023/08/24 09:37:19;;;;;;;6.78;4.28;;;30.30;73.20;;;;;;4943394;28;20079;-75
2023/08/24 09:39:46;;;;;;;8.68;4.30;;;29.90;72.50;;;;;;4963530;28;20059;-77
2023/08/24 09:42:13;;;;;;;8.05;3.92;;;29.50;73.50;;;;;;4944438;28;20054;-74
2023/08/24 09:44:45;;;;;;;6.70;4.10;;;29.10;73.50;;;;;;4941224;28;20589;-73
2023/08/24 09:47:11;;;;;;;6.82;3.40;;;28.80;74.50;;;;;;4941812;28;20089;-75
2023/08/24 09:49:37;;;;;;;6.03;3.08;;;28.50;76.00;;;;;;4944671;28;20053;-74
2023/08/24 09:52:07;;;;;;;6.75;4.03;;;28.20;77.30;;;;;;4920467;28;20464;-74
2023/08/24 09:54:37;;;;;;;7.15;3.72;;;28.00;77.40;;;;;;4944227;28;20133;-80
2023/08/24 09:57:07;;;;;;;10.13;4.63;;;27.70;77.50;;;;;;4950930;28;20507;-75
2023/08/24 09:59:34;;;;;;;8.40;4.10;;;27.50;78.00;;;;;;4942146;28;20563;-76
2023/08/24 10:02:01;;;;;;;5.13;3.72;;;27.30;78.70;;;;;;4942885;28;20048;-78
2023/08/24 10:04:35;;;;;;;7.28;3.92;;;27.00;79.20;;;;;;4946034;28;20117;-74
2023/08/24 10:07:15;;;;;;;9.98;4.20;;;26.80;80.10;;;;;;4940489;28;20070;-74
2023/08/24 10:09:49;;;;;;;6.23;3.80;;;26.60;80.80;;;;;;4933107;28;20141;-75
2023/08/24 10:12:20;;;;;;;7.95;4.88;;;26.50;82.00;;;;;;4923114;28;20055;-74
2023/08/24 10:15:08;;;;;;;8.63;4.68;;;26.30;81.40;;;;;;4923804;28;20053;-73
2023/08/24 10:17:35;;;;;;;8.57;4.82;;;26.20;81.40;;;;;;4956614;28;20058;-73
2023/08/24 10:20:05;;;;;;;10.10;5.15;;;25.90;83.00;;;;;;4941654;28;20096;-76
2023/08/24 10:22:32;;;;;;;7.95;4.90;;;25.70;83.80;;;;;;4959761;28;20075;-76
2023/08/24 10:24:58;;;;;;;7.82;4.05;;;25.60;84.50;;;;;;4924717;28;20645;-76
2023/08/24 10:27:26;;;;;;;8.88;4.78;;;25.50;85.00;;;;;;4942114;28;20743;-75
2023/08/24 10:29:52;;;;;;;7.45;5.55;;;25.50;85.50;;;;;;4956738;28;20464;-74
2023/08/24 10:32:20;;;;;;;7.63;4.97;;;25.30;85.90;;;;;;4956883;28;20058;-75
2023/08/24 10:34:46;;;;;;;8.48;5.00;;;25.30;87.30;;;;;;4926113;28;20401;-74
2023/08/24 10:37:12;;;;;;;8.93;5.28;;;25.20;88.20;;;;;;4943685;28;20564;-75
2023/08/24 10:39:45;;;;;;;9.73;5.38;;;25.20;88.80;;;;;;4925386;28;20058;-72
2023/08/24 10:42:12;;;;;;;10.52;5.30;;;25.10;89.50;;;;;;4941578;28;20047;-72
2023/08/24 10:44:39;;;;;;;9.65;4.60;;;25.10;89.20;;;;;;4925967;28;20418;-71
2023/08/24 10:47:14;;;;;;;8.82;6.03;;;25.00;89.50;;;;;;4942181;28;20520;-72
2023/08/24 10:50:02;;;;;;;10.02;6.30;;;25.00;90.10;;;;;;4942434;28;20101;-72
2023/08/24 10:52:37;;;;;;;11.50;5.55;;;25.00;90.30;;;;;;4928316;28;20090;-72
2023/08/24 10:55:05;;;;;;;11.63;5.85;;;25.00;90.50;;;;;;4957128;28;20482;-73
2023/08/24 10:57:38;;;;;;;12.60;6.15;;;25.00;90.40;;;;;;4940788;28;20066;-72
2023/08/24 11:00:10;;;;;;;9.63;5.43;;;25.00;90.50;;;;;;4941817;28;20058;-73
2023/08/24 11:02:46;;;;;;;7.03;5.25;;;24.90;90.60;;;;;;4924491;28;20055;-73
2023/08/24 11:05:15;;;;;;;7.47;5.00;;;25.00;90.30;;;;;;4939075;28;20487;-75
2023/08/24 11:07:56;;;;;;;8.95;5.55;;;25.00;90.50;;;;;;4925031;28;20047;-76
2023/08/24 11:10:24;;;;;;;9.00;5.87;;;25.00;90.90;;;;;;4947440;28;20046;-75
2023/08/24 11:13:22;;;;;;;7.18;4.82;;;25.10;90.90;;;;;;4941213;28;20082;-74
2023/08/24 11:15:54;;;;;;;9.55;5.20;;;25.30;90.70;;;;;;4900107;28;20542;-78
2023/08/24 11:18:30;;;;;;;8.45;5.72;;;25.40;90.60;;;;;;4925104;28;20051;-73
2023/08/24 11:21:02;;;;;;;8.82;5.95;;;25.60;90.40;;;;;;4939167;28;20136;-74
2023/08/24 11:23:28;;;;;;;8.50;5.63;;;25.70;90.10;;;;;;4941298;28;20050;-74
2023/08/24 11:25:59;;;;;;;10.00;5.22;;;25.80;90.30;;;;;;4945192;28;20054;-74
2023/08/24 11:28:29;;;;;;;11.52;5.88;;;26.00;90.40;;;;;;4939468;28;20054;-74
2023/08/24 11:30:56;;;;;;;8.15;4.72;;;26.20;89.10;;;;;;4964091;28;20061;-75
2023/08/24 11:33:29;;;;;;;10.02;5.25;;;26.40;88.80;;;;;;4937413;28;20054;-74
2023/08/24 11:35:56;;;;;;;9.65;5.22;;;26.50;88.50;;;;;;4924790;28;20050;-77
2023/08/24 11:38:21;;;;;;;9.13;5.43;;;26.50;87.10;;;;;;4923877;28;20135;-75
2023/08/24 11:40:47;;;;;;;8.73;5.18;;;26.60;87.20;;;;;;4927544;28;20050;-75
2023/08/24 11:43:25;;;;;;;7.10;5.07;;;26.60;86.80;;;;;;4931595;28;20056;-78
2023/08/24 11:45:54;;;;;;;9.55;5.07;;;26.60;87.10;;;;;;4936344;28;20093;-77
2023/08/24 11:48:29;;;;;;;7.18;5.25;;;26.60;86.60;;;;;;4937765;28;20125;-74
2023/08/24 11:50:56;;;;;;;9.13;4.68;;;26.60;86.90;;;;;;4922331;28;20141;-76
2023/08/24 11:53:24;;;;;;;8.77;4.40;;;26.70;86.60;;;;;;4923395;28;20649;-79
2023/08/24 11:55:52;;;;;;;9.15;5.75;;;26.70;86.20;;;;;;4925078;28;20055;-76
2023/08/24 11:58:18;;;;;;;8.20;5.55;;;26.60;84.40;;;;;;4940320;28;20051;-77
2023/08/24 12:00:46;;;;;;;7.95;5.40;;;26.60;84.50;;;;;;4937874;28;20041;-74
2023/08/24 12:03:13;;;;;;;9.95;5.43;;;26.60;84.80;;;;;;4953059;28;20054;-76
2023/08/24 12:05:39;;;;;;;8.70;5.20;;;26.50;84.90;;;;;;4928146;28;20125;-78
2023/08/24 12:08:05;;;;;;;7.38;4.80;;;26.40;86.00;;;;;;4939138;28;20060;-73
2023/08/24 12:10:31;;;;;;;9.55;4.63;;;26.30;85.70;;;;;;4940277;28;20050;-76
2023/08/24 12:13:05;;;;;;;8.63;5.20;;;26.30;86.60;;;;;;4941855;28;20365;-74
2023/08/24 12:15:35;;;;;;;8.40;5.45;;;26.40;85.90;;;;;;4939262;28;20945;-77
2023/08/24 12:18:16;;;;;;;6.93;4.53;;;26.40;84.90;;;;;;4939722;28;20050;-77
2023/08/24 12:20:42;;;;;;;11.55;5.35;;;26.40;85.90;;;;;;4920959;28;20043;-75
2023/08/24 12:23:11;;;;;;;6.85;4.90;;;26.40;86.00;;;;;;4936163;28;20097;-74
2023/08/24 12:25:41;;;;;;;5.53;4.18;;;26.50;86.30;;;;;;4940043;28;20128;-75
2023/08/24 12:28:15;;;;;;;7.28;4.75;;;26.50;86.50;;;;;;4934629;28;20042;-75
2023/08/24 12:30:47;;;;;;;8.10;6.18;;;26.40;86.40;;;;;;4927366;28;20047;-76
2023/08/24 12:33:23;;;;;;;7.93;4.80;;;26.40;85.30;;;;;;4938421;28;20086;-79
2023/08/24 12:35:49;;;;;;;7.45;5.03;;;26.30;85.70;;;;;;4935585;28;20042;-76
2023/08/24 12:38:15;;;;;;;7.75;4.93;;;26.30;85.80;;;;;;4932908;28;20112;-79
2023/08/24 12:40:41;;;;;;;12.20;5.68;;;26.20;86.20;;;;;;4923643;28;20055;-75
2023/08/24 12:43:08;;;;;;;7.22;4.78;;;26.20;86.60;;;;;;4926812;28;20058;-78